sensor_id;sensor_type;location;lat;lon;timestamp;P1;durP1;ratioP1;P2;durP2;ratioP2
82005;SDS011;71529;47.484;19.064;2024-03-02T00:02:04;30.40;;;17.70;;
82005;SDS011;71529;47.484;19.064;2024-03-02T00:04:34;28.00;;;17.45;;
82005;SDS011;71529;47.484;19.064;2024-03-02T00:07:07;34.80;;;19.42;;
82005;SDS011;71529;47.484;19.064;2024-03-02T00:09:36;35.90;;;20.65;;
82005;SDS011;71529;47.484;19.064;2024-03-02T00:12:05;30.55;;;18.90;;
82005;SDS011;71529;47.484;19.064;2024-03-02T00:14:35;26.80;;;18.70;;
82005;SDS011;71529;47.484;19.064;2024-03-02T00:17:04;32.35;;;18.67;;
82005;SDS011;71529;47.484;19.064;2024-03-02T00:19:34;33.30;;;18.35;;
82005;SDS011;71529;47.484;19.064;2024-03-02T00:22:10;36.22;;;18.60;;
82005;SDS011;71529;47.484;19.064;2024-03-02T00:24:40;24.65;;;18.02;;
82005;SDS011;71529;47.484;19.064;2024-03-02T00:27:09;25.92;;;17.25;;
82005;SDS011;71529;47.484;19.064;2024-03-02T00:29:42;28.23;;;17.77;;
82005;SDS011;71529;47.484;19.064;2024-03-02T00:32:12;29.65;;;19.08;;
82005;SDS011;71529;47.484;19.064;2024-03-02T00:34:44;29.33;;;18.85;;
82005;SDS011;71529;47.484;19.064;2024-03-02T00:37:16;29.27;;;17.63;;
82005;SDS011;71529;47.484;19.064;2024-03-02T00:39:48;36.40;;;18.70;;
82005;SDS011;71529;47.484;19.064;2024-03-02T00:42:18;28.15;;;17.75;;
82005;SDS011;71529;47.484;19.064;2024-03-02T00:44:47;30.02;;;19.33;;
82005;SDS011;71529;47.484;19.064;2024-03-02T00:47:16;27.77;;;18.13;;
82005;SDS011;71529;47.484;19.064;2024-03-02T00:49:45;31.40;;;18.20;;
82005;SDS011;71529;47.484;19.064;2024-03-02T00:52:18;27.83;;;17.23;;
82005;SDS011;71529;47.484;19.064;2024-03-02T00:54:47;27.45;;;17.83;;
82005;SDS011;71529;47.484;19.064;2024-03-02T00:57:15;27.13;;;18.58;;
82005;SDS011;71529;47.484;19.064;2024-03-02T00:59:45;37.47;;;19.08;;
82005;SDS011;71529;47.484;19.064;2024-03-02T01:02:14;31.38;;;19.30;;
82005;SDS011;71529;47.484;19.064;2024-03-02T01:04:46;29.45;;;19.20;;
82005;SDS011;71529;47.484;19.064;2024-03-02T01:07:14;29.73;;;19.40;;
82005;SDS011;71529;47.484;19.064;2024-03-02T01:09:46;26.50;;;17.38;;
82005;SDS011;71529;47.484;19.064;2024-03-02T01:12:15;28.10;;;17.65;;
82005;SDS011;71529;47.484;19.064;2024-03-02T01:14:44;34.00;;;18.75;;
82005;SDS011;71529;47.484;19.064;2024-03-02T01:17:13;39.05;;;19.95;;
82005;SDS011;71529;47.484;19.064;2024-03-02T01:19:42;29.08;;;17.67;;
82005;SDS011;71529;47.484;19.064;2024-03-02T01:22:12;28.30;;;17.60;;
82005;SDS011;71529;47.484;19.064;2024-03-02T01:24:41;28.08;;;18.25;;
82005;SDS011;71529;47.484;19.064;2024-03-02T01:27:13;28.88;;;18.20;;
82005;SDS011;71529;47.484;19.064;2024-03-02T01:29:43;25.83;;;17.52;;
82005;SDS011;71529;47.484;19.064;2024-03-02T01:32:15;25.90;;;16.85;;
82005;SDS011;71529;47.484;19.064;2024-03-02T01:34:44;28.50;;;17.17;;
82005;SDS011;71529;47.484;19.064;2024-03-02T01:37:13;27.95;;;16.92;;
82005;SDS011;71529;47.484;19.064;2024-03-02T01:39:42;30.77;;;17.38;;
82005;SDS011;71529;47.484;19.064;2024-03-02T01:42:14;32.42;;;18.15;;
82005;SDS011;71529;47.484;19.064;2024-03-02T01:44:43;26.35;;;16.80;;
82005;SDS011;71529;47.484;19.064;2024-03-02T01:47:12;29.52;;;16.70;;
82005;SDS011;71529;47.484;19.064;2024-03-02T01:49:42;25.88;;;16.90;;
82005;SDS011;71529;47.484;19.064;2024-03-02T01:52:11;29.88;;;20.17;;
82005;SDS011;71529;47.484;19.064;2024-03-02T01:54:40;29.83;;;20.02;;
82005;SDS011;71529;47.484;19.064;2024-03-02T01:57:10;27.35;;;17.35;;
82005;SDS011;71529;47.484;19.064;2024-03-02T01:59:41;39.28;;;22.85;;
82005;SDS011;71529;47.484;19.064;2024-03-02T02:02:11;26.92;;;17.15;;
82005;SDS011;71529;47.484;19.064;2024-03-02T02:04:40;27.05;;;16.67;;
82005;SDS011;71529;47.484;19.064;2024-03-02T02:07:09;37.65;;;22.63;;
82005;SDS011;71529;47.484;19.064;2024-03-02T02:09:40;42.58;;;22.83;;
82005;SDS011;71529;47.484;19.064;2024-03-02T02:12:10;37.60;;;22.98;;
82005;SDS011;71529;47.484;19.064;2024-03-02T02:14:38;37.72;;;18.63;;
82005;SDS011;71529;47.484;19.064;2024-03-02T02:17:16;29.70;;;19.98;;
82005;SDS011;71529;47.484;19.064;2024-03-02T02:19:44;31.35;;;20.95;;
82005;SDS011;71529;47.484;19.064;2024-03-02T02:22:16;33.45;;;18.67;;
82005;SDS011;71529;47.484;19.064;2024-03-02T02:24:45;28.90;;;19.65;;
82005;SDS011;71529;47.484;19.064;2024-03-02T02:27:14;29.25;;;18.05;;
82005;SDS011;71529;47.484;19.064;2024-03-02T02:29:43;30.73;;;18.60;;
82005;SDS011;71529;47.484;19.064;2024-03-02T02:32:13;25.38;;;17.45;;
82005;SDS011;71529;47.484;19.064;2024-03-02T02:34:43;25.67;;;17.20;;
82005;SDS011;71529;47.484;19.064;2024-03-02T02:37:12;34.05;;;19.13;;
82005;SDS011;71529;47.484;19.064;2024-03-02T02:39:44;34.50;;;18.73;;
82005;SDS011;71529;47.484;19.064;2024-03-02T02:42:13;27.40;;;17.15;;
82005;SDS011;71529;47.484;19.064;2024-03-02T02:44:42;27.33;;;18.15;;
82005;SDS011;71529;47.484;19.064;2024-03-02T02:47:11;24.90;;;16.17;;
82005;SDS011;71529;47.484;19.064;2024-03-02T02:49:40;26.23;;;17.17;;
82005;SDS011;71529;47.484;19.064;2024-03-02T02:52:09;26.02;;;17.13;;
82005;SDS011;71529;47.484;19.064;2024-03-02T02:54:38;28.25;;;17.48;;
82005;SDS011;71529;47.484;19.064;2024-03-02T02:57:09;29.02;;;16.77;;
82005;SDS011;71529;47.484;19.064;2024-03-02T02:59:38;25.50;;;17.15;;
82005;SDS011;71529;47.484;19.064;2024-03-02T03:02:07;25.63;;;18.13;;
82005;SDS011;71529;47.484;19.064;2024-03-02T03:04:36;36.60;;;19.48;;
82005;SDS011;71529;47.484;19.064;2024-03-02T03:07:05;32.42;;;19.52;;
82005;SDS011;71529;47.484;19.064;2024-03-02T03:09:36;28.80;;;17.33;;
82005;SDS011;71529;47.484;19.064;2024-03-02T03:12:09;27.73;;;16.95;;
82005;SDS011;71529;47.484;19.064;2024-03-02T03:14:37;26.83;;;16.63;;
82005;SDS011;71529;47.484;19.064;2024-03-02T03:17:08;29.13;;;17.73;;
82005;SDS011;71529;47.484;19.064;2024-03-02T03:19:38;27.90;;;16.70;;
82005;SDS011;71529;47.484;19.064;2024-03-02T03:22:06;30.75;;;18.67;;
82005;SDS011;71529;47.484;19.064;2024-03-02T03:24:36;28.55;;;18.20;;
82005;SDS011;71529;47.484;19.064;2024-03-02T03:27:04;27.38;;;17.17;;
82005;SDS011;71529;47.484;19.064;2024-03-02T03:29:36;29.38;;;18.10;;
82005;SDS011;71529;47.484;19.064;2024-03-02T03:32:05;28.90;;;17.63;;
82005;SDS011;71529;47.484;19.064;2024-03-02T03:34:35;30.70;;;18.20;;
82005;SDS011;71529;47.484;19.064;2024-03-02T03:37:04;29.10;;;18.42;;
82005;SDS011;71529;47.484;19.064;2024-03-02T03:39:33;29.02;;;16.77;;
82005;SDS011;71529;47.484;19.064;2024-03-02T03:42:03;32.38;;;16.98;;
82005;SDS011;71529;47.484;19.064;2024-03-02T03:44:32;30.00;;;18.10;;
82005;SDS011;71529;47.484;19.064;2024-03-02T03:47:04;28.70;;;16.17;;
82005;SDS011;71529;47.484;19.064;2024-03-02T03:49:33;24.00;;;16.73;;
82005;SDS011;71529;47.484;19.064;2024-03-02T03:52:02;26.48;;;16.33;;
82005;SDS011;71529;47.484;19.064;2024-03-02T03:54:32;24.98;;;17.35;;
82005;SDS011;71529;47.484;19.064;2024-03-02T03:57:03;30.50;;;18.02;;
82005;SDS011;71529;47.484;19.064;2024-03-02T03:59:32;24.23;;;17.08;;
82005;SDS011;71529;47.484;19.064;2024-03-02T04:02:05;25.02;;;16.77;;
82005;SDS011;71529;47.484;19.064;2024-03-02T04:04:34;23.73;;;16.05;;
82005;SDS011;71529;47.484;19.064;2024-03-02T04:07:04;28.48;;;17.88;;
82005;SDS011;71529;47.484;19.064;2024-03-02T04:09:32;26.17;;;17.15;;
82005;SDS011;71529;47.484;19.064;2024-03-02T04:12:02;24.17;;;17.50;;
82005;SDS011;71529;47.484;19.064;2024-03-02T04:14:31;22.17;;;15.65;;
82005;SDS011;71529;47.484;19.064;2024-03-02T04:17:00;29.95;;;17.42;;
82005;SDS011;71529;47.484;19.064;2024-03-02T04:19:32;27.95;;;18.52;;
82005;SDS011;71529;47.484;19.064;2024-03-02T04:22:01;26.42;;;17.67;;
82005;SDS011;71529;47.484;19.064;2024-03-02T04:24:30;26.77;;;17.45;;
82005;SDS011;71529;47.484;19.064;2024-03-02T04:26:59;24.20;;;17.48;;
82005;SDS011;71529;47.484;19.064;2024-03-02T04:29:28;27.58;;;18.77;;
82005;SDS011;71529;47.484;19.064;2024-03-02T04:31:57;27.55;;;18.17;;
82005;SDS011;71529;47.484;19.064;2024-03-02T04:34:26;23.95;;;16.67;;
82005;SDS011;71529;47.484;19.064;2024-03-02T04:36:57;27.27;;;17.80;;
82005;SDS011;71529;47.484;19.064;2024-03-02T04:39:26;26.13;;;17.60;;
82005;SDS011;71529;47.484;19.064;2024-03-02T04:41:55;25.30;;;17.35;;
82005;SDS011;71529;47.484;19.064;2024-03-02T04:44:24;29.27;;;18.52;;
82005;SDS011;71529;47.484;19.064;2024-03-02T04:46:53;25.73;;;17.45;;
82005;SDS011;71529;47.484;19.064;2024-03-02T04:49:23;28.10;;;18.35;;
82005;SDS011;71529;47.484;19.064;2024-03-02T04:51:52;31.63;;;18.58;;
82005;SDS011;71529;47.484;19.064;2024-03-02T04:54:23;26.80;;;18.55;;
82005;SDS011;71529;47.484;19.064;2024-03-02T04:56:52;26.63;;;18.42;;
82005;SDS011;71529;47.484;19.064;2024-03-02T04:59:21;31.73;;;19.10;;
82005;SDS011;71529;47.484;19.064;2024-03-02T05:01:50;26.52;;;17.90;;
82005;SDS011;71529;47.484;19.064;2024-03-02T05:04:19;28.38;;;18.38;;
82005;SDS011;71529;47.484;19.064;2024-03-02T05:06:48;27.73;;;18.23;;
82005;SDS011;71529;47.484;19.064;2024-03-02T05:09:20;29.80;;;18.48;;
82005;SDS011;71529;47.484;19.064;2024-03-02T05:11:51;27.48;;;17.88;;
82005;SDS011;71529;47.484;19.064;2024-03-02T05:14:36;27.83;;;18.50;;
82005;SDS011;71529;47.484;19.064;2024-03-02T05:17:05;29.13;;;18.23;;
82005;SDS011;71529;47.484;19.064;2024-03-02T05:19:34;31.38;;;20.15;;
82005;SDS011;71529;47.484;19.064;2024-03-02T05:22:03;32.47;;;19.83;;
82005;SDS011;71529;47.484;19.064;2024-03-02T05:24:35;28.15;;;19.65;;
82005;SDS011;71529;47.484;19.064;2024-03-02T05:27:04;29.55;;;20.05;;
82005;SDS011;71529;47.484;19.064;2024-03-02T05:29:33;30.70;;;20.38;;
82005;SDS011;71529;47.484;19.064;2024-03-02T05:32:03;33.25;;;20.38;;
82005;SDS011;71529;47.484;19.064;2024-03-02T05:34:32;29.75;;;19.92;;
82005;SDS011;71529;47.484;19.064;2024-03-02T05:37:01;29.30;;;20.73;;
82005;SDS011;71529;47.484;19.064;2024-03-02T05:39:30;32.38;;;21.52;;
82005;SDS011;71529;47.484;19.064;2024-03-02T05:42:01;32.55;;;20.52;;
82005;SDS011;71529;47.484;19.064;2024-03-02T05:44:31;29.67;;;20.67;;
82005;SDS011;71529;47.484;19.064;2024-03-02T05:47:00;30.00;;;20.63;;
82005;SDS011;71529;47.484;19.064;2024-03-02T05:49:29;30.50;;;20.45;;
82005;SDS011;71529;47.484;19.064;2024-03-02T05:51:58;28.05;;;20.17;;
82005;SDS011;71529;47.484;19.064;2024-03-02T05:54:27;26.25;;;18.05;;
82005;SDS011;71529;47.484;19.064;2024-03-02T05:56:55;26.08;;;18.52;;
82005;SDS011;71529;47.484;19.064;2024-03-02T05:59:44;29.90;;;18.85;;
82005;SDS011;71529;47.484;19.064;2024-03-02T06:02:13;25.15;;;18.02;;
82005;SDS011;71529;47.484;19.064;2024-03-02T06:04:42;28.77;;;18.83;;
82005;SDS011;71529;47.484;19.064;2024-03-02T06:07:11;32.60;;;20.05;;
82005;SDS011;71529;47.484;19.064;2024-03-02T06:09:40;29.42;;;19.30;;
82005;SDS011;71529;47.484;19.064;2024-03-02T06:12:10;29.77;;;19.70;;
82005;SDS011;71529;47.484;19.064;2024-03-02T06:14:39;30.77;;;19.17;;
82005;SDS011;71529;47.484;19.064;2024-03-02T06:17:11;29.45;;;19.50;;
82005;SDS011;71529;47.484;19.064;2024-03-02T06:19:40;25.95;;;19.25;;
82005;SDS011;71529;47.484;19.064;2024-03-02T06:22:09;28.83;;;19.90;;
82005;SDS011;71529;47.484;19.064;2024-03-02T06:24:38;30.27;;;20.50;;
82005;SDS011;71529;47.484;19.064;2024-03-02T06:27:07;31.60;;;20.98;;
82005;SDS011;71529;47.484;19.064;2024-03-02T06:29:35;28.33;;;18.52;;
82005;SDS011;71529;47.484;19.064;2024-03-02T06:32:04;29.50;;;19.27;;
82005;SDS011;71529;47.484;19.064;2024-03-02T06:34:36;38.40;;;19.95;;
82005;SDS011;71529;47.484;19.064;2024-03-02T06:37:05;30.83;;;19.35;;
82005;SDS011;71529;47.484;19.064;2024-03-02T06:39:34;25.05;;;18.45;;
82005;SDS011;71529;47.484;19.064;2024-03-02T06:42:03;30.77;;;19.88;;
82005;SDS011;71529;47.484;19.064;2024-03-02T06:44:32;28.65;;;19.83;;
82005;SDS011;71529;47.484;19.064;2024-03-02T06:47:02;29.48;;;19.58;;
82005;SDS011;71529;47.484;19.064;2024-03-02T06:49:32;29.50;;;18.83;;
82005;SDS011;71529;47.484;19.064;2024-03-02T06:52:03;28.80;;;19.30;;
82005;SDS011;71529;47.484;19.064;2024-03-02T06:54:32;30.60;;;20.52;;
82005;SDS011;71529;47.484;19.064;2024-03-02T06:57:00;28.27;;;19.80;;
82005;SDS011;71529;47.484;19.064;2024-03-02T06:59:30;31.65;;;20.45;;
82005;SDS011;71529;47.484;19.064;2024-03-02T07:01:58;30.40;;;19.20;;
82005;SDS011;71529;47.484;19.064;2024-03-02T07:04:28;28.13;;;19.90;;
82005;SDS011;71529;47.484;19.064;2024-03-02T07:06:57;29.05;;;19.58;;
82005;SDS011;71529;47.484;19.064;2024-03-02T07:09:28;30.80;;;19.13;;
82005;SDS011;71529;47.484;19.064;2024-03-02T07:11:57;32.47;;;20.45;;
82005;SDS011;71529;47.484;19.064;2024-03-02T07:14:26;31.73;;;19.30;;
82005;SDS011;71529;47.484;19.064;2024-03-02T07:17:15;30.15;;;18.65;;
82005;SDS011;71529;47.484;19.064;2024-03-02T07:19:43;29.30;;;20.77;;
82005;SDS011;71529;47.484;19.064;2024-03-02T07:22:13;29.45;;;19.33;;
82005;SDS011;71529;47.484;19.064;2024-03-02T07:24:45;27.85;;;19.70;;
82005;SDS011;71529;47.484;19.064;2024-03-02T07:27:15;27.45;;;19.80;;
82005;SDS011;71529;47.484;19.064;2024-03-02T07:29:45;25.45;;;18.85;;
82005;SDS011;71529;47.484;19.064;2024-03-02T07:32:13;28.48;;;19.50;;
82005;SDS011;71529;47.484;19.064;2024-03-02T07:34:43;26.15;;;19.13;;
82005;SDS011;71529;47.484;19.064;2024-03-02T07:37:12;30.38;;;18.77;;
82005;SDS011;71529;47.484;19.064;2024-03-02T07:39:41;29.85;;;18.70;;
82005;SDS011;71529;47.484;19.064;2024-03-02T07:42:13;28.70;;;19.15;;
82005;SDS011;71529;47.484;19.064;2024-03-02T07:44:43;26.67;;;18.77;;
82005;SDS011;71529;47.484;19.064;2024-03-02T07:47:12;26.02;;;18.83;;
82005;SDS011;71529;47.484;19.064;2024-03-02T07:49:41;27.88;;;19.48;;
82005;SDS011;71529;47.484;19.064;2024-03-02T07:52:10;29.42;;;19.48;;
82005;SDS011;71529;47.484;19.064;2024-03-02T07:54:39;27.30;;;18.55;;
82005;SDS011;71529;47.484;19.064;2024-03-02T07:57:07;27.45;;;19.48;;
82005;SDS011;71529;47.484;19.064;2024-03-02T07:59:39;32.58;;;20.90;;
82005;SDS011;71529;47.484;19.064;2024-03-02T08:02:08;33.95;;;19.35;;
82005;SDS011;71529;47.484;19.064;2024-03-02T08:04:37;32.05;;;21.27;;
82005;SDS011;71529;47.484;19.064;2024-03-02T08:07:07;31.08;;;20.48;;
82005;SDS011;71529;47.484;19.064;2024-03-02T08:09:36;31.40;;;18.77;;
82005;SDS011;71529;47.484;19.064;2024-03-02T08:12:05;32.55;;;21.15;;
82005;SDS011;71529;47.484;19.064;2024-03-02T08:14:34;29.50;;;20.10;;
82005;SDS011;71529;47.484;19.064;2024-03-02T08:17:05;31.73;;;20.20;;
82005;SDS011;71529;47.484;19.064;2024-03-02T08:19:37;30.08;;;19.52;;
82005;SDS011;71529;47.484;19.064;2024-03-02T08:22:06;27.45;;;18.92;;
82005;SDS011;71529;47.484;19.064;2024-03-02T08:24:35;29.33;;;20.23;;
82005;SDS011;71529;47.484;19.064;2024-03-02T08:27:04;29.23;;;20.15;;
82005;SDS011;71529;47.484;19.064;2024-03-02T08:29:33;29.98;;;19.52;;
82005;SDS011;71529;47.484;19.064;2024-03-02T08:32:05;28.92;;;19.80;;
82005;SDS011;71529;47.484;19.064;2024-03-02T08:34:35;25.58;;;19.08;;
82005;SDS011;71529;47.484;19.064;2024-03-02T08:37:04;29.05;;;19.35;;
82005;SDS011;71529;47.484;19.064;2024-03-02T08:39:33;30.52;;;19.60;;
82005;SDS011;71529;47.484;19.064;2024-03-02T08:42:02;29.65;;;19.65;;
82005;SDS011;71529;47.484;19.064;2024-03-02T08:44:34;28.75;;;18.95;;
82005;SDS011;71529;47.484;19.064;2024-03-02T08:47:06;29.38;;;17.50;;
82005;SDS011;71529;47.484;19.064;2024-03-02T08:49:35;25.60;;;19.13;;
82005;SDS011;71529;47.484;19.064;2024-03-02T08:52:04;24.48;;;18.35;;
82005;SDS011;71529;47.484;19.064;2024-03-02T08:54:33;31.30;;;19.08;;
82005;SDS011;71529;47.484;19.064;2024-03-02T08:57:03;28.42;;;18.45;;
82005;SDS011;71529;47.484;19.064;2024-03-02T08:59:41;26.88;;;17.80;;
82005;SDS011;71529;47.484;19.064;2024-03-02T09:02:13;24.35;;;18.00;;
82005;SDS011;71529;47.484;19.064;2024-03-02T09:04:42;29.33;;;20.05;;
82005;SDS011;71529;47.484;19.064;2024-03-02T09:07:11;31.50;;;19.45;;
82005;SDS011;71529;47.484;19.064;2024-03-02T09:09:40;22.80;;;16.60;;
82005;SDS011;71529;47.484;19.064;2024-03-02T09:12:09;24.20;;;16.60;;
82005;SDS011;71529;47.484;19.064;2024-03-02T09:14:38;24.10;;;17.60;;
82005;SDS011;71529;47.484;19.064;2024-03-02T09:17:09;21.10;;;16.92;;
82005;SDS011;71529;47.484;19.064;2024-03-02T09:19:42;23.60;;;16.35;;
82005;SDS011;71529;47.484;19.064;2024-03-02T09:22:10;23.08;;;17.45;;
82005;SDS011;71529;47.484;19.064;2024-03-02T09:24:40;24.52;;;17.00;;
82005;SDS011;71529;47.484;19.064;2024-03-02T09:27:09;22.63;;;16.48;;
82005;SDS011;71529;47.484;19.064;2024-03-02T09:29:38;20.27;;;14.95;;
82005;SDS011;71529;47.484;19.064;2024-03-02T09:32:07;20.42;;;16.08;;
82005;SDS011;71529;47.484;19.064;2024-03-02T09:34:36;23.98;;;16.83;;
82005;SDS011;71529;47.484;19.064;2024-03-02T09:37:08;26.88;;;18.27;;
82005;SDS011;71529;47.484;19.064;2024-03-02T09:39:37;29.40;;;19.70;;
82005;SDS011;71529;47.484;19.064;2024-03-02T09:42:06;32.25;;;21.90;;
82005;SDS011;71529;47.484;19.064;2024-03-02T09:44:35;34.17;;;22.45;;
82005;SDS011;71529;47.484;19.064;2024-03-02T09:47:04;33.05;;;23.65;;
82005;SDS011;71529;47.484;19.064;2024-03-02T09:49:34;25.38;;;17.20;;
82005;SDS011;71529;47.484;19.064;2024-03-02T09:52:03;20.02;;;15.48;;
82005;SDS011;71529;47.484;19.064;2024-03-02T09:54:36;21.98;;;16.45;;
82005;SDS011;71529;47.484;19.064;2024-03-02T09:57:05;19.13;;;14.85;;
82005;SDS011;71529;47.484;19.064;2024-03-02T09:59:35;21.02;;;15.63;;
82005;SDS011;71529;47.484;19.064;2024-03-02T10:02:04;21.67;;;14.73;;
82005;SDS011;71529;47.484;19.064;2024-03-02T10:04:33;21.40;;;15.05;;
82005;SDS011;71529;47.484;19.064;2024-03-02T10:07:09;20.42;;;15.38;;
82005;SDS011;71529;47.484;19.064;2024-03-02T10:09:44;20.40;;;14.93;;
82005;SDS011;71529;47.484;19.064;2024-03-02T10:12:14;21.42;;;15.60;;
82005;SDS011;71529;47.484;19.064;2024-03-02T10:14:44;22.20;;;15.13;;
82005;SDS011;71529;47.484;19.064;2024-03-02T10:17:14;18.75;;;14.93;;
82005;SDS011;71529;47.484;19.064;2024-03-02T10:19:45;18.85;;;14.75;;
82005;SDS011;71529;47.484;19.064;2024-03-02T10:22:15;19.98;;;15.35;;
82005;SDS011;71529;47.484;19.064;2024-03-02T10:24:46;18.88;;;13.65;;
82005;SDS011;71529;47.484;19.064;2024-03-02T10:27:16;18.23;;;14.00;;
82005;SDS011;71529;47.484;19.064;2024-03-02T10:29:47;19.65;;;13.95;;
82005;SDS011;71529;47.484;19.064;2024-03-02T10:32:16;18.20;;;12.80;;
82005;SDS011;71529;47.484;19.064;2024-03-02T10:34:45;19.30;;;13.65;;
82005;SDS011;71529;47.484;19.064;2024-03-02T10:37:15;16.17;;;13.05;;
82005;SDS011;71529;47.484;19.064;2024-03-02T10:39:48;20.42;;;15.45;;
82005;SDS011;71529;47.484;19.064;2024-03-02T10:42:17;28.70;;;18.55;;
82005;SDS011;71529;47.484;19.064;2024-03-02T10:44:47;20.20;;;14.65;;
82005;SDS011;71529;47.484;19.064;2024-03-02T10:47:17;15.45;;;12.60;;
82005;SDS011;71529;47.484;19.064;2024-03-02T10:49:49;17.88;;;12.90;;
82005;SDS011;71529;47.484;19.064;2024-03-02T10:52:20;18.95;;;13.00;;
82005;SDS011;71529;47.484;19.064;2024-03-02T10:54:53;16.15;;;13.30;;
82005;SDS011;71529;47.484;19.064;2024-03-02T10:57:22;13.98;;;11.90;;
82005;SDS011;71529;47.484;19.064;2024-03-02T10:59:56;15.70;;;11.50;;
82005;SDS011;71529;47.484;19.064;2024-03-02T11:02:28;15.02;;;12.32;;
82005;SDS011;71529;47.484;19.064;2024-03-02T11:04:59;15.45;;;11.93;;
82005;SDS011;71529;47.484;19.064;2024-03-02T11:07:34;16.08;;;13.52;;
82005;SDS011;71529;47.484;19.064;2024-03-02T11:10:08;16.33;;;11.55;;
82005;SDS011;71529;47.484;19.064;2024-03-02T11:12:38;15.65;;;12.23;;
82005;SDS011;71529;47.484;19.064;2024-03-02T11:15:14;17.95;;;13.02;;
82005;SDS011;71529;47.484;19.064;2024-03-02T11:17:46;16.83;;;13.52;;
82005;SDS011;71529;47.484;19.064;2024-03-02T11:20:15;18.58;;;13.13;;
82005;SDS011;71529;47.484;19.064;2024-03-02T11:22:46;16.20;;;12.13;;
82005;SDS011;71529;47.484;19.064;2024-03-02T11:25:27;14.82;;;11.85;;
82005;SDS011;71529;47.484;19.064;2024-03-02T11:28:00;15.00;;;11.02;;
82005;SDS011;71529;47.484;19.064;2024-03-02T11:33:23;16.27;;;10.90;;
82005;SDS011;71529;47.484;19.064;2024-03-02T11:35:58;20.95;;;13.88;;
82005;SDS011;71529;47.484;19.064;2024-03-02T11:38:28;21.33;;;13.48;;
82005;SDS011;71529;47.484;19.064;2024-03-02T11:41:05;22.80;;;17.92;;
82005;SDS011;71529;47.484;19.064;2024-03-02T11:43:37;23.95;;;16.70;;
82005;SDS011;71529;47.484;19.064;2024-03-02T11:46:07;20.95;;;15.48;;
82005;SDS011;71529;47.484;19.064;2024-03-02T11:48:38;19.88;;;12.38;;
82005;SDS011;71529;47.484;19.064;2024-03-02T11:51:07;19.75;;;13.65;;
82005;SDS011;71529;47.484;19.064;2024-03-02T11:53:37;14.75;;;11.27;;
82005;SDS011;71529;47.484;19.064;2024-03-02T11:56:11;33.90;;;20.95;;
82005;SDS011;71529;47.484;19.064;2024-03-02T12:01:10;15.95;;;12.02;;
82005;SDS011;71529;47.484;19.064;2024-03-02T12:03:40;14.95;;;10.88;;
82005;SDS011;71529;47.484;19.064;2024-03-02T12:06:10;13.38;;;10.30;;
82005;SDS011;71529;47.484;19.064;2024-03-02T12:08:39;14.23;;;10.70;;
82005;SDS011;71529;47.484;19.064;2024-03-02T12:11:14;13.40;;;10.25;;
82005;SDS011;71529;47.484;19.064;2024-03-02T12:13:51;12.43;;;9.75;;
82005;SDS011;71529;47.484;19.064;2024-03-02T12:16:22;14.70;;;10.50;;
82005;SDS011;71529;47.484;19.064;2024-03-02T12:18:52;15.63;;;10.80;;
82005;SDS011;71529;47.484;19.064;2024-03-02T12:21:20;13.70;;;11.13;;
82005;SDS011;71529;47.484;19.064;2024-03-02T12:23:50;13.98;;;11.00;;
82005;SDS011;71529;47.484;19.064;2024-03-02T12:26:22;14.18;;;11.15;;
82005;SDS011;71529;47.484;19.064;2024-03-02T12:28:51;13.82;;;10.57;;
82005;SDS011;71529;47.484;19.064;2024-03-02T12:31:20;12.82;;;9.80;;
82005;SDS011;71529;47.484;19.064;2024-03-02T12:33:49;15.10;;;11.90;;
82005;SDS011;71529;47.484;19.064;2024-03-02T12:36:19;15.40;;;11.57;;
82005;SDS011;71529;47.484;19.064;2024-03-02T12:38:47;15.43;;;11.48;;
82005;SDS011;71529;47.484;19.064;2024-03-02T12:41:17;18.15;;;12.80;;
82005;SDS011;71529;47.484;19.064;2024-03-02T12:43:49;12.25;;;10.68;;
82005;SDS011;71529;47.484;19.064;2024-03-02T12:46:17;15.32;;;11.90;;
82005;SDS011;71529;47.484;19.064;2024-03-02T12:48:47;17.48;;;14.57;;
82005;SDS011;71529;47.484;19.064;2024-03-02T12:51:16;21.30;;;14.75;;
82005;SDS011;71529;47.484;19.064;2024-03-02T12:53:45;16.40;;;12.68;;
82005;SDS011;71529;47.484;19.064;2024-03-02T12:56:14;16.38;;;12.75;;
82005;SDS011;71529;47.484;19.064;2024-03-02T12:58:43;19.45;;;15.27;;
82005;SDS011;71529;47.484;19.064;2024-03-02T13:01:15;17.42;;;12.88;;
82005;SDS011;71529;47.484;19.064;2024-03-02T13:03:44;17.02;;;12.43;;
82005;SDS011;71529;47.484;19.064;2024-03-02T13:06:13;16.65;;;11.98;;
82005;SDS011;71529;47.484;19.064;2024-03-02T13:08:43;16.23;;;12.57;;
82005;SDS011;71529;47.484;19.064;2024-03-02T13:11:12;16.25;;;12.57;;
82005;SDS011;71529;47.484;19.064;2024-03-02T13:13:42;15.55;;;12.48;;
82005;SDS011;71529;47.484;19.064;2024-03-02T13:16:11;16.20;;;13.02;;
82005;SDS011;71529;47.484;19.064;2024-03-02T13:18:44;21.23;;;15.18;;
82005;SDS011;71529;47.484;19.064;2024-03-02T13:21:13;15.50;;;12.70;;
82005;SDS011;71529;47.484;19.064;2024-03-02T13:23:45;16.02;;;12.52;;
82005;SDS011;71529;47.484;19.064;2024-03-02T13:26:15;18.02;;;12.65;;
82005;SDS011;71529;47.484;19.064;2024-03-02T13:28:44;18.73;;;11.43;;
82005;SDS011;71529;47.484;19.064;2024-03-02T13:31:15;16.52;;;11.73;;
82005;SDS011;71529;47.484;19.064;2024-03-02T13:33:44;17.65;;;10.35;;
82005;SDS011;71529;47.484;19.064;2024-03-02T13:36:13;17.63;;;12.10;;
82005;SDS011;71529;47.484;19.064;2024-03-02T13:38:42;17.35;;;10.30;;
82005;SDS011;71529;47.484;19.064;2024-03-02T13:41:11;16.25;;;11.10;;
82005;SDS011;71529;47.484;19.064;2024-03-02T13:43:40;21.23;;;11.43;;
82005;SDS011;71529;47.484;19.064;2024-03-02T13:46:10;17.13;;;11.60;;
82005;SDS011;71529;47.484;19.064;2024-03-02T13:48:41;20.08;;;11.23;;
82005;SDS011;71529;47.484;19.064;2024-03-02T13:51:11;21.13;;;12.18;;
82005;SDS011;71529;47.484;19.064;2024-03-02T13:53:40;19.60;;;12.18;;
82005;SDS011;71529;47.484;19.064;2024-03-02T13:56:09;19.77;;;12.68;;
82005;SDS011;71529;47.484;19.064;2024-03-02T13:58:38;29.10;;;20.17;;
82005;SDS011;71529;47.484;19.064;2024-03-02T14:01:09;23.10;;;16.67;;
82005;SDS011;71529;47.484;19.064;2024-03-02T14:03:37;20.75;;;13.55;;
82005;SDS011;71529;47.484;19.064;2024-03-02T14:06:09;24.48;;;13.85;;
82005;SDS011;71529;47.484;19.064;2024-03-02T14:08:38;22.00;;;12.35;;
82005;SDS011;71529;47.484;19.064;2024-03-02T14:11:10;22.50;;;13.35;;
82005;SDS011;71529;47.484;19.064;2024-03-02T14:13:40;20.50;;;11.43;;
82005;SDS011;71529;47.484;19.064;2024-03-02T14:16:10;17.00;;;11.45;;
82005;SDS011;71529;47.484;19.064;2024-03-02T14:18:38;19.60;;;11.07;;
82005;SDS011;71529;47.484;19.064;2024-03-02T14:21:10;16.38;;;11.80;;
82005;SDS011;71529;47.484;19.064;2024-03-02T14:23:39;18.30;;;11.85;;
82005;SDS011;71529;47.484;19.064;2024-03-02T14:26:08;18.25;;;11.95;;
82005;SDS011;71529;47.484;19.064;2024-03-02T14:28:37;19.10;;;12.00;;
82005;SDS011;71529;47.484;19.064;2024-03-02T14:31:05;17.70;;;11.13;;